This is the latest recevied weather packets stored in our database for station/object DH9SB-6. If no packets are shown the sender has not sent any weather packets the latest 1 day(s).
| Time | Temp. | Humidity | Pressure | Rain* | Wind** | Luminosity | Snow |
|---|---|---|---|---|---|---|---|
| 1778056375 | 17.78° C | 62% | - | 0 mm | - | - | - |
| 1778055175 | 17.78° C | 61% | - | 0 mm | - | - | - |
| 1778054551 | 18.89° C | 60% | - | 0 mm | - | - | - |
| 1778053981 | 18.89° C | 60% | - | 0 mm | - | - | - |
| 1778053351 | 18.89° C | 58% | - | 0 mm | - | - | - |
| 1778052823 | 19.44° C | 58% | - | 0 mm | - | - | - |
| 1778052152 | 19.44° C | 63% | - | 0 mm | - | - | - |
| 1778051576 | 18.33° C | 68% | - | 0 mm | - | - | - |
| 1778047352 | 13.33° C | 89% | - | 0 mm | - | - | - |
| 1778046775 | 13.33° C | 91% | - | 0 mm | - | - | - |
| 1778045578 | 12.22° C | 97% | - | 0 mm | - | - | - |
| 1778044952 | 11.67° C | 97% | - | 0.25 mm | - | - | - |
| 1778044375 | 11.11° C | 97% | - | 0.25 mm | - | - | - |
| 1778043176 | 11.11° C | 97% | - | 0.25 mm | - | - | - |
| 1778042552 | 11.11° C | 98% | - | 0.25 mm | - | - | - |
| 1778040775 | 10.56° C | 97% | - | 0 mm | - | - | - |
| 1778040200 | 10° C | 97% | - | 0 mm | - | - | - |
| 1778039577 | 10° C | 97% | - | 0 mm | - | - | - |
| 1778038952 | 10.56° C | 97% | - | 0 mm | - | - | - |
| 1778038375 | 10.56° C | 98% | - | 0 mm | - | - | - |
| 1778037753 | 10.56° C | 98% | - | 0 mm | - | - | - |
| 1778035975 | 11.11° C | 98% | - | 0 mm | - | - | - |
| 1778035353 | 11.11° C | 98% | - | 0 mm | - | - | - |
| 1778034776 | 10.56° C | 98% | - | 0 mm | - | - | - |
* Rain latest hour (hover to see other rain measurements)
** Current wind speed in m/s (hover to see current wind gust speed)